• Join FlightAware (Why Join?)
  • Login
  • US Flag 
01:50AM EDT


 

Airport Tracker/Info


-or-


 

Live Flight TrackerFlight Track Log ✈ N905SH ✈ 08-May-2013 ✈ KFSD - KFAR

Flight Track Log - Related Links

Times and Time Zones

All times are in EDT time to prevent confusion due to time zone crossing. See the N905SH flight status page for this flight to view local times or setup timezone preferences in your user account.

Time Position Orientation Groundspeed Altitude Reporting Facility
EDT Latitude Longitude Course Direction KTS MPH feet Rate Location/Type
05:02PM 43.5339 -96.7997 269° West 171 197 3,700  Level Minneapolis Center
05:04PM 43.5333 -96.8594 269° West 200 230 5,100 1,740 Climbing Minneapolis Center
05:05PM 43.5931 -96.8639 357° North 186 214 7,400 1,800 Climbing Minneapolis Center
05:06PM 43.6422 -96.8667 358° North 180 207 8,900 1,500 Climbing Minneapolis Center
05:07PM 43.6939 -96.8772 352° North 182 209 10,500 1,560 Climbing Minneapolis Center
05:08PM 43.7478 -96.8856 354° North 187 215 12,200 1,680 Climbing Minneapolis Center
05:09PM 43.8031 -96.8906 356° North 194 223 14,000 1,620 Climbing Minneapolis Center
05:10PM 43.8681 -96.8928 359° North 195 224 16,000 1,680 Climbing Minneapolis Center
05:11PM 43.9322 -96.8953 358° North 192 221 17,900 1,560 Climbing Minneapolis Center
05:12PM 43.9911 -96.8942 North 206 237 19,300 960 Climbing Minneapolis Center
05:13PM 44.0528 -96.8972 358° North 217 250 20,000 300 Climbing Minneapolis Center
05:14PM 44.1261 -96.8925 North 252 290 20,000  Level Minneapolis Center
05:15PM 44.2056 -96.8922 360° North 277 319 20,000  Level Minneapolis Center
05:16PM 44.2850 -96.8931 360° North 283 326 20,000  Level Minneapolis Center
05:17PM 44.3625 -96.8928 360° North 280 322 20,000  Level Minneapolis Center
05:18PM 44.4578 -96.8956 359° North 283 326 20,000  Level Minneapolis Center
05:19PM 44.5367 -96.8961 360° North 283 326 20,000  Level Minneapolis Center
05:20PM 44.6167 -96.8958 360° North 285 328 20,000  Level Minneapolis Center
05:21PM 44.6956 -96.8986 359° North 285 328 20,000  Level Minneapolis Center
05:22PM 44.7750 -96.9033 358° North 285 328 20,000  Level Minneapolis Center
05:23PM 44.8544 -96.9047 359° North 285 328 20,000  Level Minneapolis Center
05:24PM 44.9467 -96.9089 358° North 277 319 20,000  Level Minneapolis Center
05:25PM 45.0217 -96.9106 359° North 273 314 20,000  Level Minneapolis Center
05:26PM 45.0950 -96.9083 North 266 306 20,000  Level Minneapolis Center
05:28PM 45.1711 -96.9092 360° North 269 310 20,000  Level Minneapolis Center
05:29PM 45.2456 -96.9083 360° North 267 307 20,000  Level Minneapolis Center
05:30PM 45.3064 -96.9094 359° North 271 312 20,000  Level Minneapolis Center
05:31PM 45.4136 -96.9158 358° North 274 315 20,000  Level Minneapolis Center
05:32PM 45.4894 -96.9122 North 273 314 20,000  Level Minneapolis Center
05:33PM 45.5650 -96.9108 North 272 313 20,000  Level Minneapolis Center
05:34PM 45.6414 -96.9172 357° North 274 315 20,000  Level Minneapolis Center
05:35PM 45.7158 -96.9197 359° North 270 311 20,000  Level Minneapolis Center
05:36PM 45.7925 -96.9192 360° North 272 313 20,000  Level Minneapolis Center
05:37PM 45.8831 -96.9264 357° North 273 314 20,000  Level Minneapolis Center
05:38PM 45.9594 -96.9228 North 274 315 20,000 -60 Level Minneapolis Center
05:39PM 46.0347 -96.9194 North 271 312 19,900 -780 Descending Minneapolis Center
05:40PM 46.1150 -96.9219 359° North 282 325 18,400 -1,620 Descending Minneapolis Center
05:41PM 46.2011 -96.9161 North 288 331 16,600 -1,800 Descending Minneapolis Center
05:42PM 46.2833 -96.9183 359° North 282 325 14,800 -1,800 Descending Minneapolis Center
05:43PM 46.3631 -96.9256 356° North 274 315 12,900 -1,800 Descending Minneapolis Center
05:44PM 46.4450 -96.9294 358° North 280 322 11,100 -1,800 Descending Minneapolis Center
05:45PM 46.5244 -96.9364 357° North 276 318 9,200 -1,680 Descending Minneapolis Center
05:46PM 46.5983 -96.9397 358° North 273 314 7,400 -1,860 Descending Minneapolis Center
05:47PM 46.6803 -96.9106 14° North 234 269 5,100 -1,800 Descending Minneapolis Center
05:48PM 46.7450 -96.8842 16° North 231 266 3,700 -1,140 Descending Minneapolis Center
05:49PM 46.8081 -96.8542 18° North 231 266 2,800 -780 Descending Minneapolis Center
05:50PM 46.8539 -96.8183 28° Northeast 194 223 2,100 -780 Descending Minneapolis Center
05:51PM 46.8975 -96.8164 North 155 178 1,300 -780 Descending Minneapolis Center
05:53PM 46.9167 -96.8000 15° North  Level FlightAware Approximate
06:00PM 46.9207 -96.8158 15° North  Level Estimated
06:01PM 46.9207 -96.8158 15° North  Level Estimated